createdAt,value
2019-01-26T00:00:37.621Z,35.20
2019-01-26T00:01:37.585Z,35.60
2019-01-26T00:02:37.576Z,37.20
2019-01-26T00:03:37.617Z,33.60
2019-01-26T00:04:37.548Z,34.60
2019-01-26T00:05:37.563Z,33.00
2019-01-26T00:06:37.530Z,34.80
2019-01-26T00:07:37.519Z,36.80
2019-01-26T00:08:37.506Z,34.40
2019-01-26T00:09:37.503Z,32.60
2019-01-26T00:10:37.506Z,33.80
2019-01-26T00:11:37.474Z,33.50
2019-01-26T00:12:37.465Z,36.30
2019-01-26T00:13:37.452Z,33.50
2019-01-26T00:14:37.483Z,33.70
2019-01-26T00:15:37.548Z,37.00
2019-01-26T00:16:37.422Z,31.70
2019-01-26T00:17:37.419Z,30.80
2019-01-26T00:18:37.410Z,31.60
2019-01-26T00:19:37.449Z,31.60
2019-01-26T00:20:37.437Z,33.20
2019-01-26T00:21:37.380Z,34.10
2019-01-26T00:22:37.361Z,34.30
2019-01-26T00:23:37.368Z,32.20
2019-01-26T00:24:37.338Z,36.00
2019-01-26T00:25:37.344Z,31.30
2019-01-26T00:26:37.358Z,31.60
2019-01-26T00:27:37.304Z,32.40
2019-01-26T00:28:37.294Z,31.00
2019-01-26T00:29:37.286Z,32.60
2019-01-26T00:30:37.356Z,28.20
2019-01-26T00:31:37.259Z,30.40
2019-01-26T00:32:37.252Z,30.60
2019-01-26T00:33:37.242Z,28.10
2019-01-26T00:34:37.228Z,28.80
2019-01-26T00:35:37.239Z,32.60
2019-01-26T00:36:37.212Z,27.10
2019-01-26T00:37:37.197Z,28.70
2019-01-26T00:38:37.189Z,28.10
2019-01-26T00:39:37.174Z,29.60
2019-01-26T00:40:37.172Z,26.70
2019-01-26T00:41:37.176Z,23.90
2019-01-26T00:42:37.144Z,26.20
2019-01-26T00:43:37.139Z,23.90
2019-01-26T00:44:37.128Z,28.10
2019-01-26T00:45:37.153Z,26.60
2019-01-26T00:46:37.101Z,24.30
2019-01-26T00:47:37.125Z,26.60
2019-01-26T00:48:37.113Z,23.80
2019-01-26T00:49:37.067Z,22.40
2019-01-26T00:50:37.080Z,24.80
2019-01-26T00:51:37.051Z,24.80
2019-01-26T00:52:37.040Z,26.90
2019-01-26T00:53:37.052Z,24.60
2019-01-26T00:54:37.042Z,23.90
2019-01-26T00:55:37.046Z,23.90
2019-01-26T00:56:37.004Z,23.70
2019-01-26T00:57:36.985Z,24.00
2019-01-26T00:58:36.982Z,25.70
2019-01-26T00:59:36.968Z,27.80
2019-01-26T01:00:36.970Z,26.10
2019-01-26T01:01:36.961Z,28.30
2019-01-26T01:02:36.933Z,25.30
2019-01-26T01:03:37.024Z,21.00
2019-01-26T01:04:36.928Z,25.00
2019-01-26T01:05:36.898Z,26.40
2019-01-26T01:06:36.921Z,23.20
2019-01-26T01:07:36.891Z,29.00
2019-01-26T01:08:36.870Z,26.50
2019-01-26T01:09:36.878Z,27.30
2019-01-26T01:10:36.849Z,25.50
2019-01-26T01:11:36.840Z,28.80
2019-01-26T01:12:36.882Z,31.50
2019-01-26T01:13:36.874Z,26.60
2019-01-26T01:14:36.811Z,27.10
2019-01-26T01:15:36.795Z,26.50
2019-01-26T01:16:36.787Z,31.40
2019-01-26T01:17:36.794Z,31.60
2019-01-26T01:18:36.762Z,29.20
2019-01-26T01:19:36.748Z,27.60
2019-01-26T01:20:36.738Z,30.40
2019-01-26T01:21:36.733Z,31.30
2019-01-26T01:22:36.738Z,30.90
2019-01-26T01:23:36.798Z,27.80
2019-01-26T01:24:36.692Z,28.30
2019-01-26T01:25:36.683Z,31.60
2019-01-26T01:27:31.016Z,25.40
2019-01-26T01:28:31.026Z,30.20
2019-01-26T01:29:30.994Z,33.40
2019-01-26T01:30:30.991Z,30.50
2019-01-26T01:31:30.978Z,30.90
2019-01-26T01:32:30.965Z,33.50
2019-01-26T01:33:30.982Z,34.00
2019-01-26T01:34:30.972Z,29.40
2019-01-26T01:35:30.931Z,35.70
2019-01-26T01:36:30.923Z,33.70
2019-01-26T01:37:30.909Z,29.90
2019-01-26T01:38:30.922Z,37.30
2019-01-26T01:39:31.039Z,31.70
2019-01-26T01:40:30.886Z,30.90
2019-01-26T01:41:30.866Z,30.80
2019-01-26T01:42:30.862Z,29.90
2019-01-26T01:43:30.841Z,31.40
2019-01-26T01:44:30.861Z,31.20
2019-01-26T01:45:30.834Z,29.50
2019-01-26T01:46:30.817Z,29.70
2019-01-26T01:47:30.800Z,31.00
2019-01-26T01:48:30.800Z,33.40
2019-01-26T01:49:30.800Z,32.10
2019-01-26T01:50:30.774Z,30.20
2019-01-26T01:51:38.305Z,31.70
2019-01-26T01:52:30.769Z,31.50
2019-01-26T01:53:30.747Z,31.10
2019-01-26T01:54:30.746Z,31.90
2019-01-26T01:55:30.715Z,27.60
2019-01-26T01:56:30.719Z,31.00
2019-01-26T01:57:30.691Z,31.60
2019-01-26T01:58:30.683Z,30.20
2019-01-26T01:59:30.742Z,34.90
2019-01-26T02:00:30.660Z,30.20
2019-01-26T02:01:30.651Z,31.60
2019-01-26T02:02:30.643Z,30.30
2019-01-26T02:03:30.665Z,28.90
2019-01-26T02:04:30.659Z,30.10
2019-01-26T02:05:30.612Z,31.70
2019-01-26T02:06:30.600Z,29.10
2019-01-26T02:07:30.585Z,31.90
2019-01-26T02:08:30.615Z,29.60
2019-01-26T02:09:30.594Z,29.00
2019-01-26T02:10:30.587Z,27.50
2019-01-26T02:11:30.547Z,31.40
2019-01-26T02:12:30.533Z,30.40
2019-01-26T02:13:30.556Z,31.60
2019-01-26T02:14:30.520Z,32.80
2019-01-26T02:15:30.545Z,28.40
2019-01-26T02:16:30.493Z,29.20
2019-01-26T02:17:30.479Z,30.60
2019-01-26T02:18:30.471Z,33.70
2019-01-26T02:19:39.294Z,29.60
2019-01-26T02:20:30.443Z,30.00
2019-01-26T02:21:30.460Z,31.70
2019-01-26T02:22:30.424Z,31.70
2019-01-26T02:23:30.420Z,27.70
2019-01-26T02:24:30.399Z,30.50
2019-01-26T02:25:30.386Z,29.30
2019-01-26T02:26:39.166Z,37.20
2019-01-26T02:27:30.367Z,30.20
2019-01-26T02:28:30.363Z,33.90
2019-01-26T02:29:30.343Z,31.30
2019-01-26T02:30:30.337Z,28.90
2019-01-26T02:31:30.332Z,31.10
2019-01-26T02:32:30.359Z,30.80
2019-01-26T02:33:30.333Z,33.80
2019-01-26T02:34:30.298Z,29.70
2019-01-26T02:35:30.283Z,30.90
2019-01-26T02:36:30.279Z,33.70
2019-01-26T02:37:30.286Z,35.80
2019-01-26T02:38:30.293Z,30.70
2019-01-26T02:39:30.236Z,31.50
2019-01-26T02:40:30.244Z,34.60
2019-01-26T02:41:30.225Z,33.70
2019-01-26T02:42:30.278Z,31.90
2019-01-26T02:43:30.211Z,32.20
2019-01-26T02:44:30.203Z,30.30
2019-01-26T02:45:30.171Z,29.50
2019-01-26T02:46:30.166Z,34.00
2019-01-26T02:47:30.177Z,28.60
2019-01-26T02:48:30.163Z,33.20
2019-01-26T02:49:30.136Z,30.50
2019-01-26T02:50:30.186Z,27.10
2019-01-26T02:51:30.108Z,28.60
2019-01-26T02:52:30.159Z,29.50
2019-01-26T02:53:30.090Z,26.90
2019-01-26T02:54:30.118Z,30.50
2019-01-26T02:55:30.118Z,29.30
2019-01-26T02:56:30.050Z,30.10
2019-01-26T02:57:30.046Z,29.50
2019-01-26T02:58:30.107Z,27.50
2019-01-26T02:59:30.020Z,26.80
2019-01-26T03:00:30.028Z,29.10
2019-01-26T03:01:29.998Z,27.00
2019-01-26T03:02:30.030Z,25.00
2019-01-26T03:03:30.005Z,28.10
2019-01-26T03:04:29.963Z,29.90
2019-01-26T03:05:29.951Z,27.70
2019-01-26T03:06:29.954Z,27.20
2019-01-26T03:07:29.953Z,27.50
2019-01-26T03:08:29.920Z,27.30
2019-01-26T03:09:29.932Z,28.60
2019-01-26T03:10:29.923Z,26.50
2019-01-26T03:11:29.912Z,27.20
2019-01-26T03:12:29.892Z,28.10
2019-01-26T03:13:29.895Z,25.60
2019-01-26T03:14:29.898Z,26.00
2019-01-26T03:15:29.842Z,27.40
2019-01-26T03:16:29.832Z,28.50
2019-01-26T03:17:29.822Z,26.50
2019-01-26T03:18:29.832Z,26.80
2019-01-26T03:19:29.840Z,28.40
2019-01-26T03:20:29.794Z,25.50
2019-01-26T03:21:29.799Z,26.30
2019-01-26T03:22:29.786Z,26.60
2019-01-26T03:23:29.759Z,27.10
2019-01-26T03:24:29.772Z,28.30
2019-01-26T03:25:29.731Z,27.50
2019-01-26T03:26:29.738Z,28.70
2019-01-26T03:27:29.716Z,29.40
2019-01-26T03:28:29.706Z,28.80
2019-01-26T03:29:29.731Z,29.30
2019-01-26T03:30:29.716Z,27.10
2019-01-26T03:31:29.668Z,30.50
2019-01-26T03:32:29.662Z,28.80
2019-01-26T03:33:29.649Z,27.00
2019-01-26T03:34:29.642Z,31.60
2019-01-26T03:35:29.656Z,32.70
2019-01-26T03:36:29.642Z,30.40
2019-01-26T03:37:29.603Z,29.40
2019-01-26T03:38:29.596Z,29.30
2019-01-26T03:39:29.688Z,29.10
2019-01-26T03:40:29.622Z,29.60
2019-01-26T03:41:29.569Z,29.40
2019-01-26T03:42:29.575Z,31.50
2019-01-26T03:43:29.538Z,33.60
2019-01-26T03:44:29.531Z,31.20
2019-01-26T03:45:29.541Z,31.00
2019-01-26T03:46:29.540Z,35.10
2019-01-26T03:47:29.507Z,32.60
2019-01-26T03:48:29.496Z,36.30
2019-01-26T03:49:29.471Z,32.50
2019-01-26T03:50:29.483Z,33.00
2019-01-26T03:51:29.458Z,31.90
2019-01-26T03:52:29.481Z,32.60
2019-01-26T03:53:29.436Z,33.40
2019-01-26T03:54:29.421Z,32.90
2019-01-26T03:55:29.480Z,36.10
2019-01-26T03:56:29.407Z,39.00
2019-01-26T03:57:29.393Z,33.90
2019-01-26T03:58:29.384Z,34.30
2019-01-26T03:59:29.377Z,33.40
2019-01-26T04:00:29.357Z,41.60
2019-01-26T04:01:29.370Z,33.80
2019-01-26T04:02:29.356Z,36.30
2019-01-26T04:03:29.331Z,36.60
2019-01-26T04:04:29.325Z,35.40
2019-01-26T04:05:29.313Z,37.40
2019-01-26T04:06:29.319Z,41.50
2019-01-26T04:07:29.293Z,38.50
2019-01-26T04:08:29.291Z,37.10
2019-01-26T04:09:29.366Z,37.90
2019-01-26T04:10:29.261Z,37.10
2019-01-26T04:11:29.276Z,37.10
2019-01-26T04:12:29.239Z,36.80
2019-01-26T04:13:29.223Z,34.00
2019-01-26T04:15:47.044Z,46.10
2019-01-26T04:16:47.018Z,42.30
2019-01-26T04:17:46.996Z,46.40
2019-01-26T04:18:46.972Z,45.10
2019-01-26T04:19:54.512Z,41.60
2019-01-26T04:20:54.493Z,41.00
2019-01-26T04:21:55.808Z,43.50
2019-01-26T04:22:54.466Z,40.90
2019-01-26T04:23:46.924Z,44.90
2019-01-26T04:24:54.448Z,44.10
2019-01-26T04:25:54.436Z,43.90
2019-01-26T04:26:55.517Z,42.60
2019-01-26T04:27:46.877Z,43.50
2019-01-26T04:28:46.865Z,52.70
2019-01-26T04:29:46.853Z,46.60
2019-01-26T04:30:46.842Z,43.30
2019-01-26T04:31:46.840Z,45.10
2019-01-26T04:32:46.843Z,43.20
2019-01-26T04:33:46.848Z,43.60
2019-01-26T04:34:46.821Z,49.90
2019-01-26T04:35:46.789Z,50.00
2019-01-26T04:36:46.783Z,46.50
2019-01-26T04:37:46.794Z,43.80
2019-01-26T04:38:46.793Z,47.20
2019-01-26T04:39:46.773Z,44.90
2019-01-26T04:40:46.738Z,45.20
2019-01-26T04:41:46.733Z,46.80
2019-01-26T04:42:46.736Z,44.60
2019-01-26T04:43:46.711Z,48.70
2019-01-26T04:44:46.700Z,46.10
2019-01-26T04:45:54.239Z,49.30
2019-01-26T04:46:46.668Z,49.70
2019-01-26T04:47:46.704Z,49.30
2019-01-26T04:48:46.652Z,49.20
2019-01-26T04:49:46.637Z,48.70
2019-01-26T04:50:46.628Z,48.10
2019-01-26T04:51:46.615Z,45.60
2019-01-26T04:52:46.622Z,46.30
2019-01-26T04:53:55.517Z,50.40
2019-01-26T04:54:46.606Z,46.20
2019-01-26T04:55:46.576Z,49.10
2019-01-26T04:56:46.595Z,54.90
2019-01-26T04:57:46.571Z,50.20
2019-01-26T04:58:46.573Z,46.30
2019-01-26T04:59:46.537Z,49.90
2019-01-26T05:00:58.117Z,52.50
2019-01-26T05:01:46.512Z,51.30
2019-01-26T05:02:46.503Z,52.20
2019-01-26T05:03:46.519Z,48.00
2019-01-26T05:04:46.476Z,50.30
2019-01-26T05:05:46.469Z,50.20
2019-01-26T05:06:46.499Z,55.40
2019-01-26T05:07:46.450Z,44.30
2019-01-26T05:08:46.461Z,52.70
2019-01-26T05:09:46.527Z,51.30
2019-01-26T05:10:46.418Z,51.00
2019-01-26T05:11:46.458Z,53.30
2019-01-26T05:12:46.451Z,45.30
2019-01-26T05:13:46.597Z,53.00
2019-01-26T05:14:46.376Z,53.10
2019-01-26T05:15:46.363Z,55.60
2019-01-26T05:16:46.349Z,47.90
2019-01-26T05:17:46.360Z,52.70
2019-01-26T05:18:46.331Z,47.80
2019-01-26T05:19:46.337Z,47.70
2019-01-26T05:20:46.315Z,50.60
2019-01-26T05:21:46.414Z,50.20
2019-01-26T05:22:46.437Z,49.00
2019-01-26T05:23:46.285Z,52.50
2019-01-26T05:24:46.281Z,49.50
2019-01-26T05:25:46.267Z,47.90
2019-01-26T05:26:46.327Z,54.70
2019-01-26T05:27:46.267Z,51.90
2019-01-26T05:28:46.448Z,54.00
2019-01-26T05:29:46.308Z,54.30
2019-01-26T05:30:46.327Z,44.40
2019-01-26T05:31:46.239Z,52.50
2019-01-26T05:32:46.196Z,54.90
2019-01-26T05:33:46.370Z,54.60
2019-01-26T05:34:46.159Z,51.70
2019-01-26T05:35:46.229Z,53.30
2019-01-26T05:36:46.179Z,51.80
2019-01-26T05:39:27.206Z,51.20
2019-01-26T05:41:37.601Z,37.30
2019-01-26T05:42:37.507Z,50.30
2019-01-26T05:43:37.521Z,49.80
2019-01-26T05:44:37.484Z,53.40
2019-01-26T05:45:37.512Z,50.80
2019-01-26T05:46:37.456Z,47.50
2019-01-26T05:47:37.446Z,54.00
2019-01-26T05:48:37.435Z,49.00
2019-01-26T05:49:37.436Z,49.00
2019-01-26T05:52:39.005Z,41.90
2019-01-26T05:53:38.976Z,47.20
2019-01-26T05:54:39.034Z,49.80
2019-01-26T05:55:39.235Z,47.00
2019-01-26T05:56:39.025Z,50.10
2019-01-26T05:57:38.972Z,48.80
2019-01-26T05:58:39.056Z,51.10
2019-01-26T05:59:38.894Z,48.60
2019-01-26T06:00:38.958Z,50.10
2019-01-26T06:01:38.872Z,50.80
2019-01-26T06:02:38.865Z,53.60
2019-01-26T06:03:38.845Z,50.30
2019-01-26T06:04:38.835Z,46.60
2019-01-26T06:05:38.881Z,49.50
2019-01-26T06:06:38.824Z,50.00
2019-01-26T06:07:38.847Z,47.70
2019-01-26T06:08:38.801Z,49.70
2019-01-26T06:09:38.984Z,45.10
2019-01-26T06:10:38.805Z,49.00
2019-01-26T06:11:38.763Z,48.40
2019-01-26T06:12:38.755Z,46.30
2019-01-26T06:13:38.764Z,46.10
2019-01-26T06:14:38.761Z,42.60
2019-01-26T06:15:38.725Z,46.00
2019-01-26T06:16:38.758Z,47.40
2019-01-26T06:17:38.813Z,46.70
2019-01-26T06:18:38.727Z,47.50
2019-01-26T06:19:38.745Z,48.30
2019-01-26T06:20:38.763Z,50.10
2019-01-26T06:21:38.686Z,43.20
2019-01-26T06:22:38.688Z,41.90
2019-01-26T06:23:38.643Z,46.10
2019-01-26T06:24:38.662Z,43.70
2019-01-26T06:25:47.174Z,45.90
2019-01-26T06:26:38.693Z,42.60
2019-01-26T06:27:38.596Z,45.40
2019-01-26T06:28:38.584Z,43.10
2019-01-26T06:29:38.574Z,44.20
2019-01-26T06:30:38.560Z,44.70
2019-01-26T06:31:38.550Z,45.80
2019-01-26T06:32:38.574Z,46.00
2019-01-26T06:33:38.527Z,45.80
2019-01-26T06:34:38.518Z,40.40
2019-01-26T06:35:38.598Z,45.10
2019-01-26T06:36:38.495Z,44.60
2019-01-26T06:37:38.508Z,43.30
2019-01-26T06:38:38.597Z,47.00
2019-01-26T06:39:38.512Z,44.10
2019-01-26T06:40:38.453Z,43.30
2019-01-26T06:41:38.443Z,45.90
2019-01-26T06:42:38.463Z,45.90
2019-01-26T06:43:38.458Z,46.10
2019-01-26T06:44:38.498Z,41.80
2019-01-26T06:45:39.133Z,46.10
2019-01-26T06:46:38.457Z,38.70
2019-01-26T06:47:38.559Z,43.00
2019-01-26T06:48:38.441Z,43.00
2019-01-26T06:49:38.384Z,41.80
2019-01-26T06:50:38.355Z,42.30
2019-01-26T06:51:38.334Z,38.60
2019-01-26T06:52:38.348Z,42.60
2019-01-26T06:53:38.386Z,41.00
2019-01-26T06:54:38.305Z,42.80
2019-01-26T06:55:38.296Z,39.10
2019-01-26T06:56:38.279Z,35.90
2019-01-26T06:57:38.273Z,40.80
2019-01-26T06:58:38.277Z,38.60
2019-01-26T06:59:38.252Z,38.50
2019-01-26T07:00:38.238Z,38.60
2019-01-26T07:01:38.226Z,39.50
2019-01-26T07:02:38.232Z,35.70
2019-01-26T07:03:38.227Z,38.60
2019-01-26T07:04:38.193Z,37.30
2019-01-26T07:05:38.182Z,37.10
2019-01-26T07:06:38.183Z,37.20
2019-01-26T07:07:38.427Z,40.60
2019-01-26T07:08:38.173Z,37.90
2019-01-26T07:09:38.136Z,37.80
2019-01-26T07:10:38.127Z,40.50
2019-01-26T07:11:38.147Z,38.00
2019-01-26T07:12:38.112Z,40.70
2019-01-26T07:13:38.115Z,38.70
2019-01-26T07:14:38.098Z,37.60
2019-01-26T07:15:38.071Z,39.30
2019-01-26T07:16:38.063Z,34.50
2019-01-26T07:17:38.052Z,38.10
2019-01-26T07:20:03.811Z,33.70
2019-01-26T07:21:03.788Z,35.30
2019-01-26T07:22:03.772Z,38.60
2019-01-26T07:23:03.765Z,34.50
2019-01-26T07:24:03.774Z,36.30
2019-01-26T07:25:03.777Z,38.30
2019-01-26T07:26:03.728Z,35.60
2019-01-26T07:27:54.006Z,32.70
2019-01-26T07:28:54.011Z,33.60
2019-01-26T07:29:53.985Z,35.50
2019-01-26T07:30:53.973Z,32.00
2019-01-26T07:31:53.963Z,35.90
2019-01-26T07:32:53.954Z,37.30
2019-01-26T07:33:54.043Z,34.40
2019-01-26T07:34:53.960Z,39.30
2019-01-26T07:35:54.001Z,29.70
2019-01-26T07:36:53.910Z,33.10
2019-01-26T07:37:53.908Z,33.30
2019-01-26T07:38:53.931Z,34.20
2019-01-26T07:39:53.915Z,33.10
2019-01-26T07:40:53.983Z,30.80
2019-01-26T07:41:53.857Z,33.20
2019-01-26T07:42:53.843Z,33.10
2019-01-26T07:43:53.837Z,34.60
2019-01-26T07:44:53.860Z,33.10
2019-01-26T07:45:53.816Z,29.40
2019-01-26T07:46:53.803Z,32.80
2019-01-26T07:47:53.811Z,30.90
2019-01-26T07:48:53.782Z,30.30
2019-01-26T07:49:53.803Z,32.00
2019-01-26T07:50:53.780Z,27.60
2019-01-26T07:51:53.752Z,35.40
2019-01-26T07:52:53.739Z,29.40
2019-01-26T07:53:53.737Z,32.60
2019-01-26T07:54:53.723Z,28.20
2019-01-26T07:55:53.737Z,25.60
2019-01-26T07:56:53.700Z,27.30
2019-01-26T07:57:53.685Z,27.70
2019-01-26T07:58:53.676Z,27.00
2019-01-26T07:59:53.687Z,26.30
2019-01-26T08:00:53.686Z,27.40
2019-01-26T08:01:53.648Z,24.40
2019-01-26T08:02:53.639Z,29.50
2019-01-26T08:03:53.629Z,27.60
2019-01-26T08:04:53.611Z,29.90
2019-01-26T08:05:53.625Z,26.80
2019-01-26T08:06:53.590Z,21.90
2019-01-26T08:07:53.577Z,24.80
2019-01-26T08:08:53.578Z,23.50
2019-01-26T08:09:53.556Z,26.00
2019-01-26T08:10:53.548Z,24.80
2019-01-26T08:11:53.580Z,26.60
2019-01-26T08:12:53.524Z,27.50
2019-01-26T08:13:53.515Z,24.00
2019-01-26T08:14:53.514Z,26.70
2019-01-26T08:15:53.495Z,23.50
2019-01-26T08:16:53.489Z,24.20
2019-01-26T08:17:53.497Z,22.30
2019-01-26T08:18:53.465Z,21.80
2019-01-26T08:19:53.473Z,22.30
2019-01-26T08:20:53.442Z,25.70
2019-01-26T08:21:53.468Z,21.30
2019-01-26T08:22:53.482Z,22.50
2019-01-26T08:23:53.534Z,25.10
2019-01-26T08:24:53.432Z,18.60
2019-01-26T08:25:53.455Z,21.10
2019-01-26T08:26:53.421Z,23.30
2019-01-26T08:27:53.404Z,19.70
2019-01-26T08:28:53.456Z,22.60
2019-01-26T08:29:53.399Z,18.30
2019-01-26T08:30:53.440Z,19.70
2019-01-26T08:31:53.364Z,22.50
2019-01-26T08:32:53.323Z,21.10
2019-01-26T08:33:53.303Z,18.30
2019-01-26T08:34:53.292Z,18.30
2019-01-26T08:35:53.282Z,19.20
2019-01-26T08:36:53.297Z,17.30
2019-01-26T08:37:53.261Z,16.20
2019-01-26T08:38:53.254Z,18.40
2019-01-26T08:39:53.239Z,20.90
2019-01-26T08:40:53.227Z,19.10
2019-01-26T08:41:53.219Z,20.10
2019-01-26T08:42:53.231Z,20.00
2019-01-26T08:43:53.197Z,18.10
2019-01-26T08:44:53.204Z,18.30
2019-01-26T08:45:53.173Z,19.50
2019-01-26T08:46:53.165Z,16.70
2019-01-26T08:47:53.175Z,15.20
2019-01-26T08:48:53.151Z,17.10
2019-01-26T08:49:53.132Z,16.00
2019-01-26T08:50:53.123Z,19.00
2019-01-26T08:51:53.110Z,16.70
2019-01-26T08:52:53.114Z,15.90
2019-01-26T08:53:53.117Z,16.80
2019-01-26T08:54:53.214Z,18.90
2019-01-26T08:55:53.122Z,19.80
2019-01-26T08:56:53.059Z,17.20
2019-01-26T08:57:53.045Z,16.30
2019-01-26T08:58:53.043Z,16.90
2019-01-26T08:59:53.052Z,15.60
2019-01-26T09:00:53.014Z,18.00
2019-01-26T09:01:53.012Z,17.10
2019-01-26T09:02:52.994Z,19.20
2019-01-26T09:03:53.039Z,16.30
2019-01-26T09:04:52.972Z,16.90
2019-01-26T09:05:52.980Z,16.50
2019-01-26T09:06:52.955Z,15.10
2019-01-26T09:07:52.940Z,15.80
2019-01-26T09:08:52.933Z,15.90
2019-01-26T09:09:52.926Z,14.00
2019-01-26T09:10:52.932Z,14.80
2019-01-26T09:11:52.897Z,14.50
2019-01-26T09:12:52.904Z,15.70
2019-01-26T09:13:52.915Z,15.00
2019-01-26T09:14:52.869Z,15.60
2019-01-26T09:15:52.856Z,16.50
2019-01-26T09:16:52.864Z,15.90
2019-01-26T09:17:52.832Z,17.80
2019-01-26T09:18:52.822Z,13.50
2019-01-26T09:19:52.814Z,18.80
2019-01-26T09:20:52.800Z,13.20
2019-01-26T09:21:52.829Z,16.50
2019-01-26T09:22:52.813Z,11.80
2019-01-26T09:23:52.769Z,15.60
2019-01-26T09:24:52.757Z,14.60
2019-01-26T09:25:52.831Z,13.20
2019-01-26T09:26:52.742Z,14.10
2019-01-26T09:27:52.744Z,12.40
2019-01-26T09:28:52.716Z,12.30
2019-01-26T09:29:52.706Z,13.20
2019-01-26T09:30:52.699Z,13.10
2019-01-26T09:31:52.737Z,12.60
2019-01-26T09:32:52.693Z,13.70
2019-01-26T09:33:52.664Z,14.40
2019-01-26T09:34:52.652Z,15.80
2019-01-26T09:35:52.643Z,12.70
2019-01-26T09:36:52.632Z,13.10
2019-01-26T09:37:52.660Z,12.50
2019-01-26T09:38:52.622Z,13.20
2019-01-26T09:39:52.602Z,12.90
2019-01-26T09:40:52.587Z,11.80
2019-01-26T09:41:52.580Z,13.00
2019-01-26T09:42:52.566Z,13.40
2019-01-26T09:43:52.574Z,13.70
2019-01-26T09:44:52.562Z,12.90
2019-01-26T09:45:52.537Z,10.50
2019-01-26T09:46:52.523Z,13.80
2019-01-26T09:47:52.513Z,11.90
2019-01-26T09:48:52.520Z,12.30
2019-01-26T09:49:52.490Z,14.00
2019-01-26T09:50:52.492Z,13.40
2019-01-26T09:51:52.480Z,13.00
2019-01-26T09:52:52.461Z,11.80
2019-01-26T09:53:52.493Z,12.40
2019-01-26T09:54:52.439Z,11.70
2019-01-26T09:55:52.427Z,11.30
2019-01-26T09:56:52.428Z,10.80
2019-01-26T09:57:52.403Z,11.00
2019-01-26T09:58:52.395Z,13.70
2019-01-26T09:59:52.411Z,13.20
2019-01-26T10:00:52.374Z,11.70
2019-01-26T10:01:52.363Z,11.40
2019-01-26T10:02:52.359Z,11.00
2019-01-26T10:03:52.341Z,11.00
2019-01-26T10:04:52.341Z,11.00
2019-01-26T10:05:52.341Z,10.90
2019-01-26T10:06:52.307Z,12.40
2019-01-26T10:07:52.300Z,11.00
2019-01-26T10:08:52.294Z,11.70
2019-01-26T10:09:52.281Z,11.30
2019-01-26T10:10:52.285Z,10.50
2019-01-26T10:11:52.260Z,12.50
2019-01-26T10:12:52.243Z,10.50
2019-01-26T10:13:52.236Z,10.10
2019-01-26T10:14:52.248Z,11.50
2019-01-26T10:15:52.239Z,10.80
2019-01-26T10:16:52.203Z,10.60
2019-01-26T10:17:52.191Z,10.10
2019-01-26T10:18:53.795Z,11.70
2019-01-26T10:19:52.167Z,16.10
2019-01-26T10:20:52.161Z,10.70
2019-01-26T10:21:52.167Z,10.80
2019-01-26T10:22:52.146Z,11.10
2019-01-26T10:23:52.125Z,11.60
2019-01-26T10:24:52.115Z,14.10
2019-01-26T10:25:52.105Z,13.10
2019-01-26T10:26:52.114Z,12.20
2019-01-26T10:27:52.085Z,12.00
2019-01-26T10:28:52.080Z,12.20
2019-01-26T10:29:52.061Z,12.90
2019-01-26T10:30:52.051Z,11.50
2019-01-26T10:31:52.060Z,10.90
2019-01-26T10:32:52.040Z,10.40
2019-01-26T10:33:52.025Z,10.90
2019-01-26T10:34:52.009Z,11.90
2019-01-26T10:35:52.001Z,11.20
2019-01-26T10:36:52.002Z,12.40
2019-01-26T10:37:51.986Z,13.50
2019-01-26T10:38:51.965Z,12.60
2019-01-26T10:39:51.975Z,12.10
2019-01-26T10:40:51.944Z,11.90
2019-01-26T10:41:51.953Z,12.60
2019-01-26T10:42:51.920Z,13.20
2019-01-26T10:43:51.917Z,12.70
2019-01-26T10:44:51.900Z,11.70
2019-01-26T10:45:51.895Z,13.00
2019-01-26T10:46:51.877Z,12.30
2019-01-26T10:47:51.884Z,14.40
2019-01-26T10:48:51.860Z,12.90
2019-01-26T10:49:51.846Z,12.60
2019-01-26T10:50:51.835Z,13.80
2019-01-26T10:51:51.823Z,13.10
2019-01-26T10:52:51.865Z,11.20
2019-01-26T10:53:51.800Z,14.80
2019-01-26T10:54:51.793Z,14.10
2019-01-26T10:55:51.797Z,13.00
2019-01-26T10:56:51.770Z,14.30
2019-01-26T10:57:51.758Z,17.10
2019-01-26T10:58:51.767Z,17.40
2019-01-26T10:59:51.734Z,13.90
2019-01-26T11:00:51.753Z,15.30
2019-01-26T11:01:51.715Z,15.50
2019-01-26T11:02:51.708Z,14.50
2019-01-26T11:03:51.724Z,13.50
2019-01-26T11:04:51.682Z,15.00
2019-01-26T11:05:51.681Z,14.30
2019-01-26T11:06:51.661Z,15.30
2019-01-26T11:07:51.660Z,15.00
2019-01-26T11:08:51.691Z,14.90
2019-01-26T11:09:51.652Z,15.00
2019-01-26T11:10:51.622Z,14.30
2019-01-26T11:11:51.614Z,15.00
2019-01-26T11:12:51.605Z,16.40
2019-01-26T11:13:51.587Z,14.30
2019-01-26T11:14:51.595Z,14.70
2019-01-26T11:15:51.582Z,15.50
2019-01-26T11:16:51.554Z,15.90
2019-01-26T11:17:51.544Z,15.80
2019-01-26T11:18:51.600Z,13.90
2019-01-26T11:19:51.539Z,13.20
2019-01-26T11:20:51.529Z,13.90
2019-01-26T11:21:51.516Z,13.90
2019-01-26T11:22:51.508Z,13.60
2019-01-26T11:23:51.488Z,15.90
2019-01-26T11:24:51.489Z,15.80
2019-01-26T11:25:51.474Z,13.70
2019-01-26T11:26:51.480Z,15.50
2019-01-26T11:27:51.436Z,13.50
2019-01-26T11:28:51.465Z,15.50
2019-01-26T11:29:51.433Z,14.20
2019-01-26T11:30:51.460Z,14.50
2019-01-26T11:31:51.829Z,13.20
2019-01-26T11:32:51.388Z,16.90
2019-01-26T11:33:51.429Z,16.60
2019-01-26T11:34:51.379Z,15.80
2019-01-26T11:35:51.356Z,16.80
2019-01-26T11:36:51.349Z,15.00
2019-01-26T11:37:51.326Z,14.80
2019-01-26T11:38:51.322Z,16.30
2019-01-26T11:39:51.370Z,16.80
2019-01-26T11:40:51.366Z,14.80
2019-01-26T11:41:51.286Z,13.70
2019-01-26T11:42:51.285Z,16.80
2019-01-26T11:43:51.263Z,17.90
2019-01-26T11:44:51.271Z,15.00
2019-01-26T11:45:51.380Z,14.80
2019-01-26T11:46:51.235Z,13.20
2019-01-26T11:47:51.226Z,16.50
2019-01-26T11:48:51.233Z,13.50
2019-01-26T11:49:51.197Z,14.30
2019-01-26T11:50:51.187Z,15.20
2019-01-26T11:51:51.211Z,14.70
2019-01-26T11:52:51.168Z,15.60
2019-01-26T11:53:51.189Z,17.10
2019-01-26T11:54:51.176Z,16.00
2019-01-26T11:55:51.150Z,17.30
2019-01-26T11:56:51.125Z,15.20
2019-01-26T11:57:51.145Z,14.80
2019-01-26T11:58:51.113Z,13.70
2019-01-26T11:59:51.188Z,15.80
2019-01-26T12:00:51.113Z,15.30
2019-01-26T12:01:51.073Z,15.40
2019-01-26T12:02:51.058Z,15.60
2019-01-26T12:03:51.054Z,13.90
2019-01-26T12:04:51.068Z,14.20
2019-01-26T12:05:51.029Z,15.90
2019-01-26T12:06:51.030Z,16.20
2019-01-26T12:07:51.011Z,15.70
2019-01-26T12:08:50.999Z,17.10
2019-01-26T12:09:50.993Z,15.40
2019-01-26T12:10:50.991Z,15.40
2019-01-26T12:11:50.965Z,15.50
2019-01-26T12:12:50.968Z,14.20
2019-01-26T12:13:50.955Z,14.30
2019-01-26T12:14:50.930Z,15.10
2019-01-26T12:15:50.941Z,14.20
2019-01-26T12:16:50.910Z,13.80
2019-01-26T12:17:50.902Z,16.30
2019-01-26T12:18:50.897Z,14.10
2019-01-26T12:19:50.900Z,13.50
2019-01-26T12:20:50.884Z,17.60
2019-01-26T12:21:50.859Z,14.90
2019-01-26T12:22:50.846Z,14.00
2019-01-26T12:23:50.846Z,15.30
2019-01-26T12:24:50.832Z,13.40
2019-01-26T12:25:50.881Z,13.90
2019-01-26T12:26:50.804Z,14.20
2019-01-26T12:27:50.792Z,13.40
2019-01-26T12:28:50.789Z,13.90
2019-01-26T12:29:50.782Z,15.00
2019-01-26T12:30:50.778Z,15.70
2019-01-26T12:31:51.600Z,15.60
2019-01-26T12:32:50.848Z,12.80
2019-01-26T12:33:50.814Z,13.90
2019-01-26T12:34:50.718Z,14.20
2019-01-26T12:35:51.282Z,14.20
2019-01-26T12:36:50.738Z,15.10
2019-01-26T12:37:50.690Z,14.70
2019-01-26T12:38:50.677Z,14.90
2019-01-26T12:39:50.675Z,12.50
2019-01-26T12:40:50.680Z,14.00
2019-01-26T12:41:50.650Z,15.40
2019-01-26T12:42:50.702Z,18.70
2019-01-26T12:43:50.699Z,15.80
2019-01-26T12:44:50.716Z,17.60
2019-01-26T12:45:50.639Z,16.30
2019-01-26T12:46:50.593Z,18.50
2019-01-26T12:47:50.583Z,17.00
2019-01-26T12:48:50.572Z,15.40
2019-01-26T12:49:50.585Z,17.80
2019-01-26T12:50:50.585Z,19.60
2019-01-26T12:51:50.585Z,15.30
2019-01-26T12:52:50.545Z,17.20
2019-01-26T12:53:50.516Z,16.40
2019-01-26T12:54:50.508Z,18.70
2019-01-26T12:55:50.529Z,19.80
2019-01-26T12:56:50.506Z,19.30
2019-01-26T12:57:50.478Z,19.10
2019-01-26T12:58:50.463Z,20.50
2019-01-26T12:59:50.461Z,13.10
2019-01-26T13:00:50.445Z,13.40
2019-01-26T13:01:50.464Z,13.10